WSSSWSSL

Guest
Details From WSSS - Singapore Changi Intl
To WSSL - Seletar
Flight Number -
Tags Routegen Generated
Created
Modified
Stats Distance 16 nm / 30 km
Max Altitude 100 ft / 30 m
Waypoints 5
Social Downloads 3
Likes 1
Share VATSIM

Download

Looking for another format? Having issues loading an existing format? Contact us
Advertisement - Login to hide

Notes

Departing runway 2 WSSS. Arriving runway 3 WSSL.

Route

WSSS +01.43_+104.03 +01.46_+103.97 +01.48_+103.91 WSSL

ID Type Via Altitude Latitude Longitude Leg Dist Tot Dist Heading (true) Name
O WSSS APT - 0 ft / 0 m 1.36213˚ 103.99910˚ - 0 nm - -
+01.43_+104.03 LATLON - 100 ft / 30 m 1.42882˚ 104.02720˚ 4 nm 4 nm 23° / 23° -
+01.46_+103.97 LATLON - 100 ft / 30 m 1.45593˚ 103.96900˚ 3 nm 8 nm 295° / 295° -
+01.48_+103.91 LATLON - 100 ft / 30 m 1.48303˚ 103.91081˚ 3 nm 12 nm 295° / 295° -
O WSSL APT - 0 ft / 0 m 1.42244˚ 103.87123˚ 4 nm 16 nm 213° / 213° Seletar

Altitude Profile

Advertisement - Login to hide

WSSS

Details ICAO WSSS (SIN)
Name Singapore Changi Intl. Airport
Region Singapore
Timezone Unknown (UTC+0.0)
Stats Elevation 22 ft / 7 m (AMSL)
Location 1.351917° 103.995603°
Runways 3
Magnetic Variation 0.229° E

METAR

WSSS 182030Z 01004KT 290V080 9999 FEW018 SCT030 BKN300 25/23 Q1011 NOSIG

Decode

TAF

Not found

Departure Runways

ID Width Length Bearing (true) Bearing (mag) Surface Threshold Offset Overrun Length
02C 164 ft / 50 m 13,619 ft / 4,151 m 22.80° 22.57° Asphalt 200 ft / 61 m 0 ft / 0 m
02L 164 ft / 50 m 14,308 ft / 4,361 m 22.69° 22.46° Asphalt 200 ft / 61 m 0 ft / 0 m
02R 164 ft / 50 m 10,072 ft / 3,070 m 22.74° 22.51° Asphalt 600 ft / 183 m 0 ft / 0 m
20C 164 ft / 50 m 13,619 ft / 4,151 m 202.80° 202.57° Asphalt 200 ft / 61 m 0 ft / 0 m
20L 164 ft / 50 m 10,072 ft / 3,070 m 202.74° 202.51° Asphalt 499 ft / 152 m 0 ft / 0 m
20R 164 ft / 50 m 14,308 ft / 4,361 m 202.69° 202.46° Asphalt 3,301 ft / 1,006 m 0 ft / 0 m

WSSL

Details ICAO WSSL (XSP)
Name Seletar
Region Singapore
Timezone Asia/Singapore (UTC+8.0)
Stats Elevation 36 ft / 11 m (AMSL)
Location 1.416427° 103.867299°
Runways 1
Magnetic Variation 0.218° E

METAR

WSSL 182000Z 01008KT 9999 FEW018 BKN300 26/22 Q1010 RMK 1430Z Q1013

Decode

TAF

Not found

Destination Runways

ID Width Length Bearing (true) Bearing (mag) Surface Threshold Offset Overrun Length
03 151 ft / 46 m 5,243 ft / 1,598 m 33.15° 32.93° Asphalt 0 ft / 0 m 197 ft / 60 m
21 151 ft / 46 m 5,243 ft / 1,598 m 213.15° 212.93° Asphalt 0 ft / 0 m 197 ft / 60 m

Popular Alternatives